Time;durP1;ratioP1;P1;durP2;ratioP2;P2;SDS_P1;SDS_P2;PMS_P1;PMS_P2;Temp;Humidity;BMP_temperature;BMP_pressure;BME280_temperature;BME280_humidity;BME280_pressure;Samples;Min_cycle;Max_cycle;Signal;HPM_P1;HPM_P2
2023/11/03 00:02:10;;;;;;;52.93;24.30;;;;;;;;;;10222079;28;20012;-74
2023/11/03 00:07:10;;;;;;;52.30;25.30;;;;;;;;;;10235142;29;20031;-72
2023/11/03 00:12:11;;;;;;;58.17;26.50;;;;;;;;;;10248106;28;20012;-72
2023/11/03 00:17:13;;;;;;;54.95;25.35;;;;;;;;;;10245038;29;20023;-71
2023/11/03 00:22:13;;;;;;;60.33;26.08;;;;;;;;;;10243703;28;20018;-72
2023/11/03 00:27:14;;;;;;;58.20;26.40;;;;;;;;;;10240914;28;20029;-74
2023/11/03 00:32:15;;;;;;;57.00;27.13;;;;;;;;;;10243609;28;20098;-73
2023/11/03 00:37:15;;;;;;;56.45;26.40;;;;;;;;;;10234376;28;20035;-72
2023/11/03 00:42:15;;;;;;;63.78;27.10;;;;;;;;;;10241577;29;20278;-73
2023/11/03 00:47:15;;;;;;;63.37;26.57;;;;;;;;;;10244561;29;20026;-72
2023/11/03 00:52:16;;;;;;;64.18;26.65;;;;;;;;;;10226327;28;20018;-72
2023/11/03 00:57:16;;;;;;;58.67;26.55;;;;;;;;;;10243820;29;20091;-72
2023/11/03 01:02:17;;;;;;;51.67;24.00;;;;;;;;;;10232057;28;20019;-72
2023/11/03 01:07:17;;;;;;;63.28;27.08;;;;;;;;;;10228734;28;20026;-72
2023/11/03 01:12:18;;;;;;;63.88;29.17;;;;;;;;;;10231363;29;20024;-72
2023/11/03 01:17:18;;;;;;;66.68;28.33;;;;;;;;;;10233263;29;20297;-72
2023/11/03 01:22:19;;;;;;;69.57;28.75;;;;;;;;;;10228593;28;20016;-72
2023/11/03 01:27:20;;;;;;;60.67;29.63;;;;;;;;;;10250111;28;20038;-72
2023/11/03 01:32:20;;;;;;;64.82;31.02;;;;;;;;;;10242462;28;20020;-73
2023/11/03 01:37:20;;;;;;;66.13;28.88;;;;;;;;;;10238611;29;20035;-72
2023/11/03 01:42:21;;;;;;;74.28;31.50;;;;;;;;;;10245695;28;20258;-73
2023/11/03 01:47:21;;;;;;;69.93;31.03;;;;;;;;;;10229678;29;20019;-73
2023/11/03 01:52:21;;;;;;;68.22;33.45;;;;;;;;;;10225885;28;20313;-72
2023/11/03 01:57:23;;;;;;;71.50;32.17;;;;;;;;;;10232754;29;20020;-72
2023/11/03 02:02:23;;;;;;;75.45;33.33;;;;;;;;;;10227904;28;20234;-73
2023/11/03 02:07:24;;;;;;;72.18;33.88;;;;;;;;;;10234597;29;20031;-73
2023/11/03 02:12:24;;;;;;;81.30;34.70;;;;;;;;;;10247343;28;20094;-73
2023/11/03 02:17:25;;;;;;;78.63;33.70;;;;;;;;;;10232768;28;20368;-73
2023/11/03 02:22:26;;;;;;;70.53;34.50;;;;;;;;;;10228475;29;20031;-73
2023/11/03 02:27:26;;;;;;;85.10;35.15;;;;;;;;;;10236629;29;20016;-73
2023/11/03 02:32:26;;;;;;;79.25;37.47;;;;;;;;;;10217005;29;20524;-73
2023/11/03 02:37:27;;;;;;;78.13;33.65;;;;;;;;;;10246767;29;20023;-71
2023/11/03 02:42:27;;;;;;;82.90;31.98;;;;;;;;;;10248804;28;20023;-72
2023/11/03 02:47:27;;;;;;;89.93;35.40;;;;;;;;;;10236890;28;20245;-73
2023/11/03 02:52:29;;;;;;;83.18;32.10;;;;;;;;;;10237908;29;20309;-72
2023/11/03 02:57:29;;;;;;;79.18;31.70;;;;;;;;;;10252320;28;20019;-72
2023/11/03 03:02:30;;;;;;;82.15;35.30;;;;;;;;;;10239514;28;20011;-72
2023/11/03 03:07:30;;;;;;;83.13;34.33;;;;;;;;;;10237892;28;20048;-72
2023/11/03 03:12:31;;;;;;;85.03;32.67;;;;;;;;;;10219545;29;20221;-72
2023/11/03 03:17:31;;;;;;;75.57;33.22;;;;;;;;;;10235589;28;20047;-72
2023/11/03 03:22:31;;;;;;;89.20;35.00;;;;;;;;;;10235926;29;20027;-72
2023/11/03 03:27:31;;;;;;;79.37;33.63;;;;;;;;;;10235962;28;20023;-71
2023/11/03 03:32:32;;;;;;;73.65;31.63;;;;;;;;;;10228391;28;20028;-72
2023/11/03 03:37:32;;;;;;;90.53;33.60;;;;;;;;;;10241009;28;20225;-72
2023/11/03 03:42:32;;;;;;;72.82;31.77;;;;;;;;;;10232919;28;20015;-74
2023/11/03 03:47:33;;;;;;;73.05;32.45;;;;;;;;;;10232417;28;20091;-71
2023/11/03 03:52:33;;;;;;;75.53;32.63;;;;;;;;;;10230510;28;20377;-71
2023/11/03 03:57:33;;;;;;;75.13;32.73;;;;;;;;;;10226690;28;20071;-72
2023/11/03 04:02:33;;;;;;;69.83;30.83;;;;;;;;;;10224691;29;20059;-72
2023/11/03 04:07:34;;;;;;;71.88;33.95;;;;;;;;;;10214894;29;20039;-72
2023/11/03 04:12:34;;;;;;;76.65;30.88;;;;;;;;;;10197576;29;20031;-71
2023/11/03 04:17:34;;;;;;;74.10;31.15;;;;;;;;;;10198369;29;20024;-72
2023/11/03 04:22:35;;;;;;;71.28;31.67;;;;;;;;;;10206510;29;20213;-72
2023/11/03 04:27:35;;;;;;;74.07;32.70;;;;;;;;;;10219749;29;20545;-72
2023/11/03 04:32:35;;;;;;;69.10;30.05;;;;;;;;;;10218526;29;20381;-72
2023/11/03 04:37:36;;;;;;;70.47;30.90;;;;;;;;;;10218267;29;20070;-72
2023/11/03 04:42:36;;;;;;;75.67;34.13;;;;;;;;;;10218353;29;20313;-72
2023/11/03 04:47:36;;;;;;;82.32;35.53;;;;;;;;;;10218291;29;20259;-72
2023/11/03 04:52:39;;;;;;;72.63;33.90;;;;;;;;;;10219819;29;20030;-73
2023/11/03 04:57:40;;;;;;;77.78;33.67;;;;;;;;;;10221062;29;20031;-72
2023/11/03 05:02:40;;;;;;;73.63;30.90;;;;;;;;;;10220779;29;20029;-74
2023/11/03 05:07:40;;;;;;;72.05;31.75;;;;;;;;;;10220474;29;20016;-73
2023/11/03 05:12:40;;;;;;;67.95;28.00;;;;;;;;;;10232790;29;20234;-72
2023/11/03 05:17:41;;;;;;;60.10;27.17;;;;;;;;;;10218936;28;20352;-72
2023/11/03 05:22:41;;;;;;;54.38;25.20;;;;;;;;;;10219508;29;20016;-73
2023/11/03 05:27:42;;;;;;;40.38;17.95;;;;;;;;;;10216289;29;20015;-71
2023/11/03 05:32:42;;;;;;;48.40;18.38;;;;;;;;;;10218553;29;20035;-71
2023/11/03 05:37:43;;;;;;;37.07;16.57;;;;;;;;;;10218676;29;20028;-71
2023/11/03 05:42:43;;;;;;;45.58;21.38;;;;;;;;;;10219198;29;20321;-72
2023/11/03 05:47:43;;;;;;;36.38;17.77;;;;;;;;;;10224059;28;20207;-71
2023/11/03 05:52:44;;;;;;;39.65;19.75;;;;;;;;;;10218502;29;20285;-71
2023/11/03 05:57:44;;;;;;;47.60;21.52;;;;;;;;;;10218352;29;20020;-71
2023/11/03 06:02:44;;;;;;;35.63;18.07;;;;;;;;;;10217946;29;20011;-70
2023/11/03 06:07:44;;;;;;;46.13;19.50;;;;;;;;;;10217784;29;20023;-72
2023/11/03 06:12:46;;;;;;;60.03;22.63;;;;;;;;;;10215228;29;20046;-71
2023/11/03 06:17:46;;;;;;;55.15;23.42;;;;;;;;;;10215258;29;20309;-71
2023/11/03 06:22:47;;;;;;;48.85;23.85;;;;;;;;;;10215720;29;20027;-71
2023/11/03 06:27:47;;;;;;;35.78;16.88;;;;;;;;;;10217684;29;20103;-71
2023/11/03 06:32:47;;;;;;;26.63;13.97;;;;;;;;;;10217103;29;20079;-72
2023/11/03 06:37:49;;;;;;;29.50;13.38;;;;;;;;;;10216403;29;20939;-71
2023/11/03 06:42:49;;;;;;;34.25;13.95;;;;;;;;;;10215154;29;20011;-71
2023/11/03 06:47:49;;;;;;;39.38;16.75;;;;;;;;;;10216510;29;20318;-72
2023/11/03 06:52:50;;;;;;;34.92;16.30;;;;;;;;;;10216255;29;20063;-72
2023/11/03 06:57:50;;;;;;;32.83;13.75;;;;;;;;;;10215606;29;20047;-72
2023/11/03 07:02:52;;;;;;;29.02;14.82;;;;;;;;;;10215985;29;20016;-71
2023/11/03 07:07:53;;;;;;;28.10;13.15;;;;;;;;;;10217550;28;20243;-71
2023/11/03 07:12:53;;;;;;;24.52;12.85;;;;;;;;;;10215773;29;20050;-71
2023/11/03 07:17:54;;;;;;;23.20;11.70;;;;;;;;;;10215646;29;20016;-70
2023/11/03 07:22:55;;;;;;;31.75;13.43;;;;;;;;;;10215852;29;20015;-71
2023/11/03 07:27:55;;;;;;;28.13;13.35;;;;;;;;;;10216059;29;20209;-73
2023/11/03 07:32:57;;;;;;;24.17;11.85;;;;;;;;;;10216078;29;20039;-71
2023/11/03 07:37:57;;;;;;;27.63;13.30;;;;;;;;;;10215751;29;20027;-72
2023/11/03 07:42:58;;;;;;;26.90;13.32;;;;;;;;;;10215476;29;20058;-71
2023/11/03 07:47:58;;;;;;;32.05;14.15;;;;;;;;;;10217644;29;20122;-72
2023/11/03 07:52:59;;;;;;;22.08;11.00;;;;;;;;;;10223096;29;20019;-72
2023/11/03 07:57:59;;;;;;;22.23;10.40;;;;;;;;;;10223466;29;20015;-71
2023/11/03 08:02:59;;;;;;;20.55;11.02;;;;;;;;;;10234856;29;20081;-71
2023/11/03 08:08:01;;;;;;;23.40;12.02;;;;;;;;;;10222477;29;20026;-72
2023/11/03 08:13:01;;;;;;;21.92;11.38;;;;;;;;;;10222373;29;20039;-72
2023/11/03 08:18:02;;;;;;;26.30;12.80;;;;;;;;;;10222123;29;20028;-71
2023/11/03 08:23:03;;;;;;;48.38;23.65;;;;;;;;;;10221880;29;20020;-71
2023/11/03 08:28:03;;;;;;;46.28;21.98;;;;;;;;;;10221987;29;20099;-72
2023/11/03 08:33:03;;;;;;;48.70;20.67;;;;;;;;;;10221808;29;20114;-71
2023/11/03 08:38:05;;;;;;;50.50;22.10;;;;;;;;;;10220479;28;20050;-71
2023/11/03 08:43:05;;;;;;;45.35;20.33;;;;;;;;;;10221296;29;20027;-72
2023/11/03 08:48:05;;;;;;;43.22;21.38;;;;;;;;;;10221242;29;20057;-71
2023/11/03 08:53:06;;;;;;;40.53;19.45;;;;;;;;;;10241660;29;20301;-72
2023/11/03 08:58:07;;;;;;;44.13;20.30;;;;;;;;;;10244283;28;20355;-71
2023/11/03 09:03:08;;;;;;;43.20;18.38;;;;;;;;;;10220873;29;20019;-71
2023/11/03 09:08:08;;;;;;;42.63;18.60;;;;;;;;;;10220933;29;20336;-71
2023/11/03 09:13:08;;;;;;;41.40;19.88;;;;;;;;;;10219244;28;20031;-72
2023/11/03 09:18:09;;;;;;;40.92;18.33;;;;;;;;;;10220493;29;20027;-70
2023/11/03 09:23:09;;;;;;;30.83;15.70;;;;;;;;;;10219769;29;20108;-72
2023/11/03 09:28:09;;;;;;;43.78;17.10;;;;;;;;;;10220133;29;20028;-71
2023/11/03 09:33:10;;;;;;;26.08;14.32;;;;;;;;;;10190633;29;20337;-72
2023/11/03 09:38:10;;;;;;;25.23;12.32;;;;;;;;;;10219356;29;20274;-72
2023/11/03 09:43:11;;;;;;;23.27;11.53;;;;;;;;;;10218803;29;20143;-71
2023/11/03 09:48:12;;;;;;;25.13;11.73;;;;;;;;;;10219183;28;20275;-73
2023/11/03 09:53:15;;;;;;;18.13;9.85;;;;;;;;;;10219277;29;20028;-72
2023/11/03 09:58:15;;;;;;;19.88;9.63;;;;;;;;;;10217560;28;20042;-72
2023/11/03 10:03:16;;;;;;;27.13;9.98;;;;;;;;;;10218282;29;20023;-73
2023/11/03 10:08:18;;;;;;;18.20;9.45;;;;;;;;;;10218357;29;20023;-72
2023/11/03 10:13:20;;;;;;;17.25;8.35;;;;;;;;;;10216265;28;20023;-73
2023/11/03 10:18:22;;;;;;;15.07;8.32;;;;;;;;;;10218983;28;20190;-74
2023/11/03 10:23:23;;;;;;;16.83;8.82;;;;;;;;;;10218041;29;20027;-71
2023/11/03 10:28:25;;;;;;;15.20;8.88;;;;;;;;;;10217192;29;20250;-72
2023/11/03 10:33:26;;;;;;;26.85;7.78;;;;;;;;;;10217236;29;20322;-73
2023/11/03 10:38:28;;;;;;;14.85;6.70;;;;;;;;;;10217230;29;20246;-74
2023/11/03 10:43:28;;;;;;;16.45;8.60;;;;;;;;;;10217308;29;20086;-73
2023/11/03 10:48:49;;;;;;;15.20;7.35;;;;;;;;;;10216392;29;20022;-73
2023/11/03 10:53:51;;;;;;;13.82;8.00;;;;;;;;;;10205626;29;20740;-74
2023/11/03 10:58:52;;;;;;;16.25;7.40;;;;;;;;;;10216111;29;20024;-74
2023/11/03 11:04:06;;;;;;;9.20;5.47;;;;;;;;;;10216426;29;20019;-74
2023/11/03 11:09:11;;;;;;;9.48;5.68;;;;;;;;;;10220588;29;20067;-73
2023/11/03 11:14:22;;;;;;;9.25;5.18;;;;;;;;;;10228730;29;20140;-73
2023/11/03 11:19:28;;;;;;;7.38;4.82;;;;;;;;;;10215789;29;20034;-73
2023/11/03 11:24:29;;;;;;;9.95;5.88;;;;;;;;;;10215144;29;20031;-73
2023/11/03 11:29:30;;;;;;;11.90;6.75;;;;;;;;;;10215571;29;20050;-73
2023/11/03 11:34:30;;;;;;;14.82;6.60;;;;;;;;;;10215908;29;20351;-71
2023/11/03 11:39:31;;;;;;;13.33;7.00;;;;;;;;;;10214062;29;20043;-73
2023/11/03 11:44:33;;;;;;;15.13;6.72;;;;;;;;;;10215709;29;20132;-72
2023/11/03 11:49:34;;;;;;;14.38;8.55;;;;;;;;;;10214588;28;20246;-72
2023/11/03 11:54:35;;;;;;;22.55;9.88;;;;;;;;;;10216218;29;20141;-72
2023/11/03 11:59:38;;;;;;;18.50;10.88;;;;;;;;;;10215735;29;20416;-72
2023/11/03 12:04:39;;;;;;;24.58;10.77;;;;;;;;;;10215265;29;20019;-72
2023/11/03 12:09:39;;;;;;;21.08;9.90;;;;;;;;;;10214418;28;20024;-72
2023/11/03 12:14:40;;;;;;;20.90;9.43;;;;;;;;;;10215260;29;20303;-73
2023/11/03 12:19:46;;;;;;;23.27;11.03;;;;;;;;;;10214756;29;20031;-72
2023/11/03 12:24:48;;;;;;;19.48;10.18;;;;;;;;;;10205292;28;20031;-72
2023/11/03 12:29:48;;;;;;;23.42;10.63;;;;;;;;;;10211570;29;20354;-72
2023/11/03 12:34:49;;;;;;;15.90;8.48;;;;;;;;;;10211606;29;20051;-71
2023/11/03 12:39:50;;;;;;;20.55;10.30;;;;;;;;;;10215177;28;20032;-72
2023/11/03 12:45:01;;;;;;;17.65;10.07;;;;;;;;;;10216287;29;20012;-73
2023/11/03 12:50:28;;;;;;;19.70;10.23;;;;;;;;;;10215653;29;20031;-71
2023/11/03 12:55:29;;;;;;;20.95;11.73;;;;;;;;;;10213958;29;20234;-74
2023/11/03 13:00:31;;;;;;;22.58;10.02;;;;;;;;;;10213643;29;20025;-72
2023/11/03 13:05:33;;;;;;;22.85;9.57;;;;;;;;;;10211898;29;20022;-72
2023/11/03 13:10:34;;;;;;;20.77;10.82;;;;;;;;;;10220434;29;20091;-72
2023/11/03 13:15:35;;;;;;;19.83;10.35;;;;;;;;;;10220670;29;20016;-72
2023/11/03 13:20:35;;;;;;;25.35;12.93;;;;;;;;;;10220093;29;20028;-72
2023/11/03 13:25:36;;;;;;;22.88;11.23;;;;;;;;;;10207405;29;20016;-73
2023/11/03 13:30:36;;;;;;;21.83;11.30;;;;;;;;;;10219003;28;20063;-72
2023/11/03 13:35:39;;;;;;;29.02;10.63;;;;;;;;;;10219412;29;20102;-73
2023/11/03 13:40:50;;;;;;;21.83;11.02;;;;;;;;;;10218802;29;20024;-74
2023/11/03 13:45:52;;;;;;;24.65;11.10;;;;;;;;;;10202010;29;20134;-71
2023/11/03 13:50:52;;;;;;;24.95;10.77;;;;;;;;;;10219786;28;20023;-72
2023/11/03 13:55:52;;;;;;;24.75;11.40;;;;;;;;;;10217750;28;20368;-72
2023/11/03 14:00:52;;;;;;;24.75;12.52;;;;;;;;;;10218384;29;20054;-73
2023/11/03 14:05:53;;;;;;;32.45;12.30;;;;;;;;;;10219361;28;20027;-72
2023/11/03 14:10:53;;;;;;;29.17;11.85;;;;;;;;;;10218714;29;20133;-72
2023/11/03 14:15:54;;;;;;;24.40;12.60;;;;;;;;;;10218679;29;20038;-73
2023/11/03 14:20:57;;;;;;;24.98;11.52;;;;;;;;;;10217689;29;20282;-73
2023/11/03 14:25:58;;;;;;;23.02;9.73;;;;;;;;;;10217901;29;20126;-72
2023/11/03 14:30:58;;;;;;;27.20;10.55;;;;;;;;;;10215936;28;20032;-72
2023/11/03 14:35:59;;;;;;;18.10;9.68;;;;;;;;;;10217365;29;20043;-72
2023/11/03 14:41:00;;;;;;;17.95;9.88;;;;;;;;;;10216789;29;20043;-72
2023/11/03 14:46:04;;;;;;;20.40;11.25;;;;;;;;;;10216505;29;20016;-72
2023/11/03 14:51:05;;;;;;;22.58;10.38;;;;;;;;;;10216478;29;20024;-74
2023/11/03 14:56:05;;;;;;;27.75;9.27;;;;;;;;;;10216636;29;20041;-73
2023/11/03 15:01:07;;;;;;;17.30;9.07;;;;;;;;;;10214957;28;20058;-73
2023/11/03 15:06:08;;;;;;;19.63;9.48;;;;;;;;;;10216516;29;20035;-73
2023/11/03 15:11:11;;;;;;;15.05;8.32;;;;;;;;;;10216148;29;20027;-72
2023/11/03 15:16:13;;;;;;;20.40;9.13;;;;;;;;;;10215868;29;20418;-72
2023/11/03 15:21:14;;;;;;;19.70;10.55;;;;;;;;;;10225198;29;20019;-73
2023/11/03 15:26:14;;;;;;;19.60;10.57;;;;;;;;;;10228207;28;20241;-73
2023/11/03 15:31:15;;;;;;;19.37;9.50;;;;;;;;;;10213732;29;20090;-73
2023/11/03 15:36:19;;;;;;;30.55;9.32;;;;;;;;;;10215647;29;20215;-72
2023/11/03 15:41:19;;;;;;;18.13;10.18;;;;;;;;;;10215304;29;20067;-72
2023/11/03 15:46:21;;;;;;;21.85;10.50;;;;;;;;;;10215336;29;20024;-71
2023/11/03 15:51:22;;;;;;;24.13;11.43;;;;;;;;;;10215973;29;20268;-72
2023/11/03 15:56:22;;;;;;;30.17;11.85;;;;;;;;;;10214892;29;20302;-73
2023/11/03 16:01:23;;;;;;;20.73;12.10;;;;;;;;;;10203158;29;20028;-74
2023/11/03 16:06:23;;;;;;;23.55;11.27;;;;;;;;;;10200771;29;20303;-75
2023/11/03 16:11:25;;;;;;;20.52;11.32;;;;;;;;;;10208300;29;20336;-73
2023/11/03 16:16:25;;;;;;;26.17;11.02;;;;;;;;;;10211640;29;20094;-74
2023/11/03 16:21:25;;;;;;;29.30;11.82;;;;;;;;;;10212129;29;20213;-72
2023/11/03 16:26:26;;;;;;;26.70;11.80;;;;;;;;;;10216905;29;20217;-74
2023/11/03 16:31:26;;;;;;;24.40;11.97;;;;;;;;;;10212228;29;20373;-73
2023/11/03 16:36:28;;;;;;;25.13;12.57;;;;;;;;;;10207748;29;20604;-73
2023/11/03 16:41:28;;;;;;;18.25;10.77;;;;;;;;;;10208230;29;20039;-72
2023/11/03 16:46:29;;;;;;;29.30;11.52;;;;;;;;;;10231397;28;20221;-75
2023/11/03 16:51:31;;;;;;;24.60;10.73;;;;;;;;;;10219110;28;20100;-73
2023/11/03 16:56:32;;;;;;;25.42;11.23;;;;;;;;;;10224468;29;20100;-73
2023/11/03 17:01:35;;;;;;;17.20;9.80;;;;;;;;;;10215729;28;20050;-75
2023/11/03 17:06:35;;;;;;;21.42;9.15;;;;;;;;;;10205700;29;20035;-75
2023/11/03 17:11:36;;;;;;;25.03;9.73;;;;;;;;;;10210447;29;20119;-74
2023/11/03 17:16:36;;;;;;;23.40;10.27;;;;;;;;;;10213312;29;20032;-73
2023/11/03 17:21:37;;;;;;;22.80;9.25;;;;;;;;;;10212306;29;20135;-76
2023/11/03 17:26:38;;;;;;;22.50;9.15;;;;;;;;;;10215018;29;20313;-70
2023/11/03 17:31:38;;;;;;;32.58;16.20;;;;;;;;;;10211276;29;20042;-69
2023/11/03 17:36:39;;;;;;;19.40;8.95;;;;;;;;;;10210971;29;20349;-71
2023/11/03 17:41:40;;;;;;;18.23;9.65;;;;;;;;;;10210362;28;20093;-70
2023/11/03 17:46:41;;;;;;;23.00;9.30;;;;;;;;;;10210668;29;20031;-70
2023/11/03 17:51:41;;;;;;;26.90;10.80;;;;;;;;;;10212662;29;20024;-70
2023/11/03 17:56:41;;;;;;;21.87;11.03;;;;;;;;;;10211156;29;20027;-70
2023/11/03 18:01:42;;;;;;;22.15;9.68;;;;;;;;;;10211094;29;20162;-71
2023/11/03 18:06:42;;;;;;;24.90;10.00;;;;;;;;;;10217480;29;20015;-82
2023/11/03 18:11:44;;;;;;;23.48;11.85;;;;;;;;;;10210844;29;20104;-72
2023/11/03 18:16:45;;;;;;;20.75;10.52;;;;;;;;;;10229369;28;20039;-71
2023/11/03 18:21:46;;;;;;;37.08;14.55;;;;;;;;;;10207615;28;20385;-73
2023/11/03 18:26:47;;;;;;;31.17;15.48;;;;;;;;;;10206583;29;20459;-78
2023/11/03 18:31:47;;;;;;;32.38;15.80;;;;;;;;;;10207268;29;20067;-74
2023/11/03 18:36:50;;;;;;;34.42;15.55;;;;;;;;;;10202347;29;20047;-75
2023/11/03 18:41:50;;;;;;;32.13;15.77;;;;;;;;;;10203807;29;20103;-75
2023/11/03 18:46:50;;;;;;;39.47;16.48;;;;;;;;;;10201388;29;20525;-73
2023/11/03 18:51:51;;;;;;;31.90;15.13;;;;;;;;;;10204339;29;20032;-72
2023/11/03 18:56:51;;;;;;;32.40;14.80;;;;;;;;;;10195695;29;20042;-75
2023/11/03 19:01:51;;;;;;;31.52;14.50;;;;;;;;;;10202821;29;20054;-75
2023/11/03 19:06:52;;;;;;;32.97;15.65;;;;;;;;;;10202658;29;20396;-74
2023/11/03 19:11:52;;;;;;;36.33;15.65;;;;;;;;;;10213355;29;20028;-74
2023/11/03 19:16:52;;;;;;;25.75;13.40;;;;;;;;;;10211173;29;20309;-72
2023/11/03 19:21:53;;;;;;;33.80;15.82;;;;;;;;;;10204931;29;20063;-72
2023/11/03 19:26:53;;;;;;;26.00;14.02;;;;;;;;;;10202253;29;20083;-73
2023/11/03 19:31:54;;;;;;;29.30;14.60;;;;;;;;;;10202999;29;20055;-79
2023/11/03 19:36:54;;;;;;;26.58;10.75;;;;;;;;;;10216446;29;20218;-76
2023/11/03 19:41:54;;;;;;;21.08;8.57;;;;;;;;;;10207770;29;20043;-76
2023/11/03 19:46:55;;;;;;;16.03;7.97;;;;;;;;;;10208739;28;20071;-78
2023/11/03 19:51:55;;;;;;;23.30;9.83;;;;;;;;;;10211444;29;20027;-74
2023/11/03 19:56:55;;;;;;;19.80;8.27;;;;;;;;;;10210501;29;20019;-74
2023/11/03 20:01:55;;;;;;;16.73;7.83;;;;;;;;;;10214561;29;20028;-76
2023/11/03 20:06:57;;;;;;;23.88;8.48;;;;;;;;;;10230115;28;20206;-75
2023/11/03 20:11:57;;;;;;;36.75;16.80;;;;;;;;;;10216380;29;20020;-74
2023/11/03 20:16:58;;;;;;;58.97;27.33;;;;;;;;;;10220321;29;20310;-75
2023/11/03 20:21:59;;;;;;;34.58;14.90;;;;;;;;;;10213117;28;20053;-75
2023/11/03 20:26:59;;;;;;;30.13;14.65;;;;;;;;;;10214665;29;20229;-77
2023/11/03 20:32:00;;;;;;;35.10;12.70;;;;;;;;;;10221043;28;20066;-74
2023/11/03 20:37:00;;;;;;;26.73;13.13;;;;;;;;;;10221673;29;20054;-74
2023/11/03 20:42:00;;;;;;;25.95;11.82;;;;;;;;;;10221407;29;20032;-75
2023/11/03 20:47:01;;;;;;;27.50;12.33;;;;;;;;;;10220903;29;20254;-73
2023/11/03 20:52:01;;;;;;;26.40;12.93;;;;;;;;;;10220665;29;20274;-80
2023/11/03 20:57:02;;;;;;;31.20;13.57;;;;;;;;;;10219693;29;20031;-77
2023/11/03 21:02:03;;;;;;;25.55;12.07;;;;;;;;;;10226382;28;20031;-74
2023/11/03 21:07:04;;;;;;;28.40;12.32;;;;;;;;;;10223423;29;20107;-77
2023/11/03 21:12:04;;;;;;;23.75;11.95;;;;;;;;;;10218201;29;20027;-76
2023/11/03 21:17:06;;;;;;;20.70;10.18;;;;;;;;;;10221346;29;20302;-78
2023/11/03 21:22:06;;;;;;;23.42;10.43;;;;;;;;;;10219277;29;20024;-77
2023/11/03 21:27:07;;;;;;;30.45;10.25;;;;;;;;;;10218063;29;20031;-76
2023/11/03 21:32:08;;;;;;;22.83;10.48;;;;;;;;;;10207330;28;20023;-76
2023/11/03 21:37:08;;;;;;;28.60;10.18;;;;;;;;;;10216299;29;20055;-76
2023/11/03 21:42:08;;;;;;;23.63;10.57;;;;;;;;;;10216276;28;20028;-77
2023/11/03 21:47:09;;;;;;;34.08;20.02;;;;;;;;;;10217079;29;20251;-76
2023/11/03 21:52:10;;;;;;;22.92;11.65;;;;;;;;;;10217669;29;20031;-75
2023/11/03 21:57:10;;;;;;;25.73;10.70;;;;;;;;;;10216348;29;20035;-75
2023/11/03 22:02:10;;;;;;;24.10;10.90;;;;;;;;;;10214899;28;20092;-74
2023/11/03 22:07:11;;;;;;;29.40;10.23;;;;;;;;;;10215995;29;20099;-75
2023/11/03 22:12:11;;;;;;;20.87;10.03;;;;;;;;;;10214782;29;20217;-75
2023/11/03 22:17:11;;;;;;;25.73;12.50;;;;;;;;;;10216140;29;20179;-76
2023/11/03 22:22:14;;;;;;;25.08;11.88;;;;;;;;;;10221748;28;20027;-77
2023/11/03 22:27:14;;;;;;;28.52;13.23;;;;;;;;;;10227359;28;20210;-78
2023/11/03 22:32:14;;;;;;;24.00;11.13;;;;;;;;;;10205546;29;20122;-76
2023/11/03 22:37:15;;;;;;;32.95;15.68;;;;;;;;;;10213948;28;20322;-75
2023/11/03 22:42:15;;;;;;;29.10;12.80;;;;;;;;;;10216449;29;20039;-76
2023/11/03 22:47:16;;;;;;;23.83;10.98;;;;;;;;;;10216449;29;20034;-76
2023/11/03 22:52:17;;;;;;;18.33;10.38;;;;;;;;;;10215279;29;20103;-78
2023/11/03 22:57:17;;;;;;;19.63;10.68;;;;;;;;;;10219659;28;20027;-77
2023/11/03 23:02:17;;;;;;;21.67;10.18;;;;;;;;;;10212731;29;20326;-77
2023/11/03 23:07:17;;;;;;;18.00;9.45;;;;;;;;;;10218573;29;20209;-77
2023/11/03 23:12:18;;;;;;;20.52;8.77;;;;;;;;;;10222647;28;20245;-77
2023/11/03 23:17:18;;;;;;;18.10;9.65;;;;;;;;;;10214032;28;20031;-77
2023/11/03 23:22:18;;;;;;;14.75;7.22;;;;;;;;;;10215669;29;20333;-77
2023/11/03 23:27:18;;;;;;;14.20;7.47;;;;;;;;;;10219201;29;20063;-77
2023/11/03 23:32:19;;;;;;;16.27;7.18;;;;;;;;;;10215688;29;20028;-76
2023/11/03 23:37:19;;;;;;;12.87;6.80;;;;;;;;;;10215142;29;20040;-76
2023/11/03 23:42:19;;;;;;;12.50;6.72;;;;;;;;;;10215716;29;20131;-76
2023/11/03 23:47:19;;;;;;;13.05;6.45;;;;;;;;;;10215024;29;20306;-76
2023/11/03 23:52:20;;;;;;;13.65;6.65;;;;;;;;;;10215601;29;20027;-76
2023/11/03 23:57:20;;;;;;;12.73;7.47;;;;;;;;;;10214741;29;20019;-75
